Terminal Aerodrome Forecast
Issued by NWS Cleveland, OH

Home | Current Version | Previous Version | Text Only | Print | Product List | Glossary On
Versions: 1 2 3 4 5 6 7 8 9 10 11 12 13 14 15 16
145
FTUS41 KCLE 232336
TAFERI
TAF
KERI 232336Z 2400/2424 VRB03KT P6SM BKN250
     FM241100 18005KT P6SM SCT100 BKN250
     FM241700 21007KT P6SM SCT050 BKN250
     FM242300 VRB03KT P6SM OVC250=

USA.gov is the U.S. government's official web portal to all federal, state and local government web resources and services.